CheckWX is a tool to help pilots better visualize weather data.  It is not intended as a substitute for an official pre-flight weather briefing.

15:10:46 UTC

VTBD TAF
Don Mueang International Airport
Bangkok, Thailand
TAF VTBD 231100Z 2312/2418 20008KT 9000 FEW020 BECMG 2321/2323 12005KT 5000 BR BECMG 2402/2404 19008KT 9000 NSW TEMPO 2406/2412 16010G25KT 5000 TSRA FEW018CB SCT030 BKN100

Mar-23@
12:00 UTC

Mar-23 @ 12:00 UTC

Mar-23@
21:00 UTC

Mar-23 @ 21:00 UTC

TAF VTBD 231100Z 2312/2418 20008KT 9000 FEW020
Wind
  • 200° at 8 KTS
Cloud Levels
  • Few at 2,000' AGL

Mar-23@
21:00 UTC

Mar-23 @ 21:00 UTC

Mar-24@
02:00 UTC

Mar-24 @ 02:00 UTC

BECMG 2321/2323 12005KT 5000 BR

Becoming

Becoming Conditions expected by Sat, Mar 23, 2019 @ 23:00 UTC

Wind
  • 120° at 5 KTS
Conditions
Mist
Cloud Levels
  • Few at 2,000' AGL

Mar-24@
02:00 UTC

Mar-24 @ 02:00 UTC

Mar-24@
18:00 UTC

Mar-24 @ 18:00 UTC

BECMG 2402/2404 19008KT 9000 NSW

Becoming

Becoming Conditions expected by Sun, Mar 24, 2019 @ 04:00 UTC

Wind
  • 190° at 8 KTS
Conditions
No significant weather
Cloud Levels
  • Few at 2,000' AGL

Mar-24@
06:00 UTC

Mar-24 @ 06:00 UTC

Mar-24@
12:00 UTC

Mar-24 @ 12:00 UTC

TEMPO 2406/2412 16010G25KT 5000 TSRA FEW018CB SCT030 BKN100

Temporary

Temporary Changes expected for less than half the time period

Wind
  • 160° at 10 KTS
  • {Gusting to 25 KTS
Conditions
Thunderstorm, Rain
Cloud Levels
  • Few at 1,800' AGL
  • Scattered at 3,000' AGL
  • Broken at 10,000' AGL